createdAt,value
2017-09-17T00:00:38.228Z,17.07
2017-09-17T00:03:05.687Z,15.73
2017-09-17T00:05:33.143Z,15.70
2017-09-17T00:08:00.623Z,16.10
2017-09-17T00:10:28.082Z,14.57
2017-09-17T00:12:55.546Z,16.30
2017-09-17T00:15:23.031Z,16.60
2017-09-17T00:17:50.505Z,16.93
2017-09-17T00:20:17.966Z,15.97
2017-09-17T00:22:45.446Z,15.30
2017-09-17T00:25:12.927Z,16.63
2017-09-17T00:27:40.391Z,16.27
2017-09-17T00:30:07.895Z,15.60
2017-09-17T00:32:35.361Z,16.03
2017-09-17T00:35:02.843Z,14.63
2017-09-17T00:37:30.372Z,16.30
2017-09-17T00:39:57.854Z,14.93
2017-09-17T00:42:25.326Z,15.00
2017-09-17T00:44:52.836Z,13.57
2017-09-17T00:47:20.303Z,15.50
2017-09-17T00:49:47.773Z,13.60
2017-09-17T00:52:15.270Z,16.10
2017-09-17T00:54:42.726Z,15.50
2017-09-17T00:57:10.186Z,15.37
2017-09-17T00:59:37.687Z,15.40
2017-09-17T01:02:05.147Z,16.67
2017-09-17T01:04:32.616Z,15.20
2017-09-17T01:07:00.105Z,16.40
2017-09-17T01:09:27.563Z,15.60
2017-09-17T01:11:55.027Z,17.23
2017-09-17T01:14:22.522Z,15.88
2017-09-17T01:16:50.010Z,16.47
2017-09-17T01:19:17.505Z,15.73
2017-09-17T01:21:44.998Z,14.95
2017-09-17T01:24:12.489Z,15.27
2017-09-17T01:26:39.979Z,15.30
2017-09-17T01:29:07.435Z,15.60
2017-09-17T01:31:34.934Z,16.17
2017-09-17T01:34:02.398Z,15.20
2017-09-17T01:36:29.866Z,15.45
2017-09-17T01:38:57.359Z,14.50
2017-09-17T01:41:24.830Z,17.00
2017-09-17T01:43:52.287Z,15.10
2017-09-17T01:46:19.770Z,14.53
2017-09-17T01:48:47.230Z,16.33
2017-09-17T01:51:14.690Z,16.20
2017-09-17T01:53:42.175Z,15.60
2017-09-17T01:56:09.642Z,16.53
2017-09-17T01:58:37.098Z,16.20
2017-09-17T02:01:04.583Z,16.63
2017-09-17T02:03:32.047Z,15.50
2017-09-17T02:05:59.498Z,15.30
2017-09-17T02:08:26.978Z,16.60
2017-09-17T02:10:54.434Z,15.97
2017-09-17T02:13:21.899Z,15.77
2017-09-17T02:15:49.385Z,17.50
2017-09-17T02:18:16.868Z,15.47
2017-09-17T02:20:44.326Z,14.70
2017-09-17T02:23:12.831Z,17.13
2017-09-17T02:25:40.343Z,16.50
2017-09-17T02:28:07.815Z,16.67
2017-09-17T02:30:35.290Z,14.00
2017-09-17T02:33:02.775Z,14.33
2017-09-17T02:35:30.258Z,14.50
2017-09-17T02:37:57.742Z,14.70
2017-09-17T02:40:25.198Z,16.40
2017-09-17T02:42:52.683Z,16.17
2017-09-17T02:45:20.142Z,15.90
2017-09-17T02:47:47.621Z,15.77
2017-09-17T02:50:15.120Z,14.43
2017-09-17T02:52:42.586Z,16.47
2017-09-17T02:55:10.054Z,16.43
2017-09-17T02:57:38.278Z,17.23
2017-09-17T03:00:05.999Z,17.17
2017-09-17T03:02:33.459Z,16.33
2017-09-17T03:05:00.958Z,16.37
2017-09-17T03:07:29.074Z,16.07
2017-09-17T03:09:56.534Z,16.90
2017-09-17T03:12:24.030Z,16.37
2017-09-17T03:14:51.487Z,16.83
2017-09-17T03:17:18.946Z,17.10
2017-09-17T03:19:46.430Z,16.70
2017-09-17T03:22:14.058Z,18.00
2017-09-17T03:24:41.762Z,19.80
2017-09-17T03:27:10.137Z,18.80
2017-09-17T03:29:44.293Z,16.13
2017-09-17T03:32:11.979Z,19.33
2017-09-17T03:34:40.746Z,17.92
2017-09-17T03:37:08.226Z,19.73
2017-09-17T03:39:35.702Z,18.60
2017-09-17T03:42:03.167Z,16.43
2017-09-17T03:44:30.814Z,19.47
2017-09-17T03:46:58.348Z,16.83
2017-09-17T03:49:27.503Z,16.10
2017-09-17T03:51:54.990Z,18.33
2017-09-17T03:54:22.502Z,16.03
2017-09-17T03:56:49.966Z,16.50
2017-09-17T03:59:17.431Z,17.35
2017-09-17T04:01:44.911Z,17.77
2017-09-17T04:04:12.374Z,16.42
2017-09-17T04:06:39.842Z,16.58
2017-09-17T04:09:07.330Z,16.90
2017-09-17T04:11:34.799Z,17.70
2017-09-17T04:14:02.262Z,16.40
2017-09-17T04:16:29.758Z,16.48
2017-09-17T04:18:57.222Z,17.95
2017-09-17T04:21:24.695Z,17.15
2017-09-17T04:23:52.183Z,17.30
2017-09-17T04:26:19.648Z,16.80
2017-09-17T04:28:47.123Z,16.23
2017-09-17T04:31:14.606Z,17.00
2017-09-17T04:33:42.070Z,17.45
2017-09-17T04:36:09.526Z,18.80
2017-09-17T04:38:37.014Z,17.48
2017-09-17T04:41:04.478Z,18.10
2017-09-17T04:43:31.951Z,17.07
2017-09-17T04:45:59.442Z,17.90
2017-09-17T04:48:26.910Z,17.15
2017-09-17T04:50:54.374Z,19.90
2017-09-17T04:53:21.871Z,20.77
2017-09-17T04:55:49.334Z,19.90
2017-09-17T04:58:16.803Z,19.23
2017-09-17T05:00:44.303Z,22.40
2017-09-17T05:03:11.771Z,22.87
2017-09-17T05:05:39.238Z,21.52
2017-09-17T05:08:06.722Z,19.35
2017-09-17T05:10:34.206Z,21.10
2017-09-17T05:13:01.679Z,20.73
2017-09-17T05:15:29.174Z,20.40
2017-09-17T05:17:56.639Z,19.80
2017-09-17T05:20:24.103Z,21.12
2017-09-17T05:22:51.594Z,19.52
2017-09-17T05:25:19.075Z,20.08
2017-09-17T05:27:46.538Z,20.33
2017-09-17T05:30:14.022Z,20.17
2017-09-17T05:32:41.491Z,22.52
2017-09-17T05:35:09.911Z,21.65
2017-09-17T05:37:37.399Z,19.33
2017-09-17T05:40:06.070Z,21.17
2017-09-17T05:42:33.552Z,20.83
2017-09-17T05:45:01.030Z,21.93
2017-09-17T05:47:31.991Z,21.00
2017-09-17T05:50:02.115Z,23.40
2017-09-17T05:52:29.599Z,24.05
2017-09-17T05:54:58.140Z,28.70
2017-09-17T05:57:25.619Z,28.10
2017-09-17T05:59:53.118Z,31.27
2017-09-17T06:02:20.589Z,33.42
2017-09-17T06:04:48.066Z,31.20
2017-09-17T06:07:15.563Z,31.10
2017-09-17T06:09:43.039Z,38.42
2017-09-17T06:12:10.506Z,33.08
2017-09-17T06:14:38.023Z,32.05
2017-09-17T06:17:05.482Z,29.67
2017-09-17T06:19:32.951Z,42.62
2017-09-17T06:22:00.447Z,38.00
2017-09-17T06:24:27.914Z,32.17
2017-09-17T06:26:55.380Z,32.60
2017-09-17T06:29:22.868Z,29.27
2017-09-17T06:31:50.342Z,32.00
2017-09-17T06:34:17.817Z,30.23
2017-09-17T06:36:45.310Z,29.67
2017-09-17T06:39:12.767Z,26.80
2017-09-17T06:41:40.230Z,26.10
2017-09-17T06:44:07.715Z,25.87
2017-09-17T06:46:35.178Z,26.58
2017-09-17T06:49:02.635Z,27.23
2017-09-17T06:51:30.118Z,27.70
2017-09-17T06:53:57.570Z,26.00
2017-09-17T06:56:25.026Z,25.03
2017-09-17T06:58:52.507Z,24.53
2017-09-17T07:01:19.958Z,25.07
2017-09-17T07:03:47.416Z,25.00
2017-09-17T07:06:14.905Z,23.27
2017-09-17T07:08:42.370Z,22.53
2017-09-17T07:11:09.837Z,22.30
2017-09-17T07:13:37.323Z,22.83
2017-09-17T07:16:04.782Z,24.80
2017-09-17T07:18:32.242Z,23.17
2017-09-17T07:20:59.719Z,24.30
2017-09-17T07:23:27.283Z,23.53
2017-09-17T07:25:54.742Z,22.97
2017-09-17T07:28:22.222Z,25.10
2017-09-17T07:30:49.683Z,21.43
2017-09-17T07:33:17.147Z,21.43
2017-09-17T07:35:44.635Z,20.93
2017-09-17T07:38:12.095Z,20.70
2017-09-17T07:40:39.554Z,21.50
2017-09-17T07:43:07.038Z,22.63
2017-09-17T07:45:34.503Z,20.73
2017-09-17T07:48:01.967Z,21.20
2017-09-17T07:50:29.452Z,20.50
2017-09-17T07:52:56.910Z,21.27
2017-09-17T07:55:24.379Z,19.40
2017-09-17T07:57:51.871Z,19.80
2017-09-17T08:00:19.338Z,20.70
2017-09-17T08:02:46.803Z,18.90
2017-09-17T08:05:14.287Z,18.80
2017-09-17T08:07:41.762Z,19.40
2017-09-17T08:10:09.222Z,20.97
2017-09-17T08:12:36.707Z,19.40
2017-09-17T08:15:04.219Z,17.67
2017-09-17T08:17:31.682Z,19.17
2017-09-17T08:19:59.161Z,18.30
2017-09-17T08:22:26.618Z,18.40
2017-09-17T08:24:54.086Z,16.47
2017-09-17T08:27:21.578Z,16.70
2017-09-17T08:29:49.046Z,17.17
2017-09-17T08:32:16.510Z,18.03
2017-09-17T08:34:43.991Z,16.60
2017-09-17T08:37:11.454Z,17.80
2017-09-17T08:39:38.915Z,15.70
2017-09-17T08:42:06.420Z,15.90
2017-09-17T08:44:33.878Z,13.60
2017-09-17T08:47:01.334Z,14.10
2017-09-17T08:49:28.814Z,14.90
2017-09-17T08:51:56.291Z,16.07
2017-09-17T08:54:23.754Z,18.27
2017-09-17T08:56:51.243Z,17.97
2017-09-17T08:59:18.710Z,15.03
2017-09-17T09:01:46.170Z,15.63
2017-09-17T09:04:13.653Z,16.00
2017-09-17T09:06:41.110Z,14.07
2017-09-17T09:09:08.574Z,14.30
2017-09-17T09:11:36.055Z,14.57
2017-09-17T09:14:03.521Z,16.87
2017-09-17T09:16:30.988Z,15.67
2017-09-17T09:18:58.474Z,11.30
2017-09-17T09:21:26.075Z,12.03
2017-09-17T09:23:53.541Z,11.33
2017-09-17T09:26:21.035Z,11.97
2017-09-17T09:28:48.491Z,9.33
2017-09-17T09:31:15.950Z,9.70
2017-09-17T09:33:43.446Z,9.60
2017-09-17T09:36:10.916Z,7.93
2017-09-17T09:38:38.370Z,9.90
2017-09-17T09:41:05.846Z,9.10
2017-09-17T09:43:33.300Z,8.27
2017-09-17T09:46:00.754Z,9.40
2017-09-17T09:48:28.235Z,9.20
2017-09-17T09:50:55.720Z,9.20
2017-09-17T09:53:23.182Z,8.80
2017-09-17T09:55:50.675Z,8.83
2017-09-17T09:58:18.135Z,7.00
2017-09-17T10:00:45.586Z,5.23
2017-09-17T10:03:13.058Z,6.50
2017-09-17T10:05:40.510Z,6.53
2017-09-17T10:08:07.962Z,6.03
2017-09-17T10:10:35.435Z,6.63
2017-09-17T10:13:02.893Z,6.60
2017-09-17T10:15:30.354Z,6.13
2017-09-17T10:17:57.833Z,5.80
2017-09-17T10:20:25.294Z,6.13
2017-09-17T10:22:52.754Z,7.30
2017-09-17T10:25:20.226Z,7.33
2017-09-17T10:27:47.675Z,7.00
2017-09-17T10:30:15.127Z,6.23
2017-09-17T10:32:42.596Z,6.43
2017-09-17T10:35:10.046Z,6.60
2017-09-17T10:37:37.503Z,6.17
2017-09-17T10:40:04.983Z,5.83
2017-09-17T10:42:32.434Z,5.87
2017-09-17T10:44:59.892Z,6.60
2017-09-17T10:47:27.361Z,6.57
2017-09-17T10:49:54.811Z,5.63
2017-09-17T10:52:22.263Z,5.80
2017-09-17T10:54:49.739Z,6.63
2017-09-17T10:57:17.199Z,5.97
2017-09-17T10:59:44.650Z,6.37
2017-09-17T11:02:12.131Z,7.67
2017-09-17T11:04:39.582Z,6.60
2017-09-17T11:07:07.035Z,6.30
2017-09-17T11:09:34.506Z,6.47
2017-09-17T11:12:01.967Z,7.47
2017-09-17T11:14:29.426Z,6.73
2017-09-17T11:16:56.907Z,6.67
2017-09-17T11:19:24.367Z,6.50
2017-09-17T11:21:51.823Z,7.00
2017-09-17T11:24:19.298Z,6.37
2017-09-17T11:26:46.760Z,6.40
2017-09-17T11:29:14.223Z,6.50
2017-09-17T11:31:41.715Z,6.40
2017-09-17T11:34:09.173Z,5.63
2017-09-17T11:36:36.627Z,5.27
2017-09-17T11:39:04.115Z,5.10
2017-09-17T11:41:31.562Z,5.10
2017-09-17T11:43:59.010Z,4.80
2017-09-17T11:46:26.483Z,4.53
2017-09-17T11:48:53.955Z,5.20
2017-09-17T11:51:21.406Z,4.57
2017-09-17T11:53:48.883Z,4.63
2017-09-17T11:56:16.360Z,3.50
2017-09-17T11:58:43.815Z,3.57
2017-09-17T12:01:14.147Z,3.30
2017-09-17T12:03:41.603Z,3.60
2017-09-17T12:06:09.091Z,3.30
2017-09-17T12:08:36.571Z,2.90
2017-09-17T12:11:04.031Z,3.57
2017-09-17T12:13:31.487Z,3.40
2017-09-17T12:15:58.959Z,3.97
2017-09-17T12:18:26.417Z,3.53
2017-09-17T12:20:53.875Z,4.10
2017-09-17T12:23:21.353Z,4.13
2017-09-17T12:25:48.816Z,4.03
2017-09-17T12:28:16.283Z,3.63
2017-09-17T12:30:43.773Z,3.80
2017-09-17T12:33:11.279Z,3.33
2017-09-17T12:35:38.739Z,4.07
2017-09-17T12:38:06.226Z,3.63
2017-09-17T12:40:33.701Z,3.70
2017-09-17T12:43:02.279Z,3.67
2017-09-17T12:45:29.761Z,4.03
2017-09-17T12:48:00.051Z,3.40
2017-09-17T12:50:27.503Z,3.03
2017-09-17T12:52:56.498Z,3.57
2017-09-17T12:55:24.982Z,3.53
2017-09-17T12:57:53.067Z,3.73
2017-09-17T13:00:20.801Z,3.70
2017-09-17T13:02:49.369Z,4.47
2017-09-17T13:05:17.001Z,3.70
2017-09-17T13:07:49.224Z,4.20
2017-09-17T13:10:17.007Z,3.40
2017-09-17T13:12:44.467Z,3.63
2017-09-17T13:15:12.103Z,3.73
2017-09-17T13:17:41.319Z,5.43
2017-09-17T13:20:08.806Z,5.47
2017-09-17T13:22:36.795Z,4.17
2017-09-17T13:25:04.395Z,3.67
2017-09-17T13:27:31.875Z,4.13
2017-09-17T13:29:59.354Z,3.13
2017-09-17T13:32:27.183Z,3.97
2017-09-17T13:34:54.775Z,4.20
2017-09-17T13:37:22.255Z,3.80
2017-09-17T13:39:49.712Z,2.87
2017-09-17T13:42:17.168Z,3.30
2017-09-17T13:44:44.655Z,3.60
2017-09-17T13:47:12.105Z,3.47
2017-09-17T13:49:39.856Z,3.10
2017-09-17T13:52:07.335Z,3.90
2017-09-17T13:54:34.790Z,3.80
2017-09-17T13:57:02.250Z,3.83
2017-09-17T13:59:30.130Z,3.47
2017-09-17T14:01:59.417Z,3.43
2017-09-17T14:04:32.446Z,3.10
2017-09-17T14:20:22.724Z,3.50
2017-09-17T14:22:50.206Z,3.10
2017-09-17T14:25:17.715Z,3.60
2017-09-17T14:27:46.403Z,3.70
2017-09-17T14:30:14.644Z,3.60
2017-09-17T14:32:42.103Z,3.80
2017-09-17T14:35:09.711Z,4.00
2017-09-17T14:37:37.231Z,3.37
2017-09-17T14:40:04.716Z,4.30
2017-09-17T14:42:32.171Z,3.90
2017-09-17T14:44:59.631Z,3.97
2017-09-17T14:47:27.107Z,4.10
2017-09-17T14:49:54.566Z,3.87
2017-09-17T14:52:23.019Z,3.90
2017-09-17T14:54:51.297Z,4.40
2017-09-17T14:57:18.906Z,4.40
2017-09-17T14:59:48.195Z,4.63
2017-09-17T15:02:16.864Z,4.47
2017-09-17T15:04:44.345Z,4.03
2017-09-17T15:07:11.825Z,4.23
2017-09-17T15:09:43.967Z,4.10
2017-09-17T15:12:15.687Z,4.03
2017-09-17T15:14:44.118Z,4.33
2017-09-17T15:17:11.672Z,3.63
2017-09-17T15:19:39.158Z,3.97
2017-09-17T15:22:09.137Z,4.73
2017-09-17T15:24:36.803Z,3.93
2017-09-17T15:27:04.302Z,4.70
2017-09-17T15:29:32.226Z,5.07
2017-09-17T15:31:59.710Z,4.27
2017-09-17T15:34:27.217Z,4.07
2017-09-17T15:36:54.883Z,4.60
2017-09-17T15:39:22.369Z,4.20
2017-09-17T15:41:50.497Z,3.97
2017-09-17T15:44:18.000Z,4.13
2017-09-17T15:46:45.457Z,4.10
2017-09-17T15:49:12.937Z,3.70
2017-09-17T15:51:40.473Z,4.17
2017-09-17T15:54:08.370Z,4.03
2017-09-17T15:56:38.575Z,4.90
2017-09-17T15:59:16.204Z,4.40
2017-09-17T16:01:43.875Z,4.43
2017-09-17T16:04:11.407Z,4.93
2017-09-17T16:06:38.955Z,4.50
2017-09-17T16:09:06.988Z,4.80
2017-09-17T16:11:34.684Z,4.20
2017-09-17T16:14:02.188Z,4.87
2017-09-17T16:16:29.799Z,4.23
2017-09-17T16:18:57.302Z,4.80
2017-09-17T16:21:24.795Z,4.23
2017-09-17T16:23:52.302Z,5.13
2017-09-17T16:26:19.900Z,4.30
2017-09-17T16:28:47.388Z,4.73
2017-09-17T16:31:14.967Z,4.67
2017-09-17T16:33:42.439Z,4.60
2017-09-17T16:36:09.978Z,5.03
2017-09-17T16:38:37.634Z,4.47
2017-09-17T16:41:05.617Z,4.87
2017-09-17T16:43:34.301Z,6.10
2017-09-17T16:46:02.835Z,5.30
2017-09-17T16:48:31.149Z,5.00
2017-09-17T16:50:59.819Z,5.50
2017-09-17T16:53:28.222Z,5.77
2017-09-17T16:55:56.605Z,6.03
2017-09-17T16:58:24.897Z,6.03
2017-09-17T17:00:53.251Z,5.60
2017-09-17T17:03:22.702Z,5.70
2017-09-17T17:05:51.849Z,6.00
2017-09-17T17:08:20.669Z,6.43
2017-09-17T17:10:49.137Z,6.80
2017-09-17T17:13:18.041Z,7.03
2017-09-17T17:15:46.553Z,26.37
2017-09-17T17:18:18.215Z,6.37
2017-09-17T17:20:48.037Z,6.00
2017-09-17T17:23:17.043Z,6.80
2017-09-17T17:25:50.300Z,5.23
2017-09-17T17:28:18.871Z,5.20
2017-09-17T17:30:52.000Z,5.17
2017-09-17T17:33:24.356Z,5.60
2017-09-17T17:35:53.360Z,7.03
2017-09-17T17:38:25.741Z,4.90
2017-09-17T17:40:54.261Z,5.03
2017-09-17T17:43:31.029Z,5.03
2017-09-17T17:46:18.194Z,5.50
2017-09-17T17:51:22.555Z,5.13
2017-09-17T17:53:53.333Z,6.77
2017-09-17T17:56:21.793Z,5.00
2017-09-17T17:58:55.069Z,4.20
2017-09-17T18:01:23.533Z,4.97
2017-09-17T18:03:52.079Z,4.80
2017-09-17T18:06:20.854Z,5.30
2017-09-17T18:09:05.133Z,5.90
2017-09-17T18:11:36.639Z,5.23
2017-09-17T18:14:08.547Z,5.40
2017-09-17T18:16:36.995Z,5.50
2017-09-17T18:19:05.451Z,4.33
2017-09-17T18:21:35.977Z,5.40
2017-09-17T18:24:04.424Z,5.43
2017-09-17T18:26:36.157Z,5.60
2017-09-17T18:29:07.634Z,5.30
2017-09-17T18:31:36.404Z,6.00
2017-09-17T18:34:23.315Z,6.03
2017-09-17T18:36:58.763Z,5.87
2017-09-17T18:39:27.172Z,6.90
2017-09-17T18:41:55.960Z,7.10
2017-09-17T18:44:24.515Z,5.37
2017-09-17T18:46:58.696Z,7.10
2017-09-17T18:49:27.159Z,6.60
2017-09-17T18:51:55.793Z,6.43
2017-09-17T18:54:26.449Z,5.70
2017-09-17T18:56:54.950Z,5.00
2017-09-17T18:59:23.532Z,6.10
2017-09-17T19:01:51.998Z,5.00
2017-09-17T19:04:20.392Z,5.63
2017-09-17T19:06:49.221Z,5.07
2017-09-17T19:09:17.693Z,4.77
2017-09-17T19:11:53.439Z,5.40
2017-09-17T19:14:22.597Z,4.87
2017-09-17T19:16:51.052Z,5.13
2017-09-17T19:19:20.116Z,5.40
2017-09-17T19:21:48.679Z,5.43
2017-09-17T19:24:17.163Z,6.20
2017-09-17T19:26:45.757Z,5.90
2017-09-17T19:29:14.256Z,5.80
2017-09-17T19:31:42.708Z,6.07
2017-09-17T19:34:11.284Z,6.50
2017-09-17T19:36:39.733Z,6.57
2017-09-17T19:39:08.210Z,7.20
2017-09-17T19:41:36.786Z,7.10
2017-09-17T19:44:05.467Z,7.40
2017-09-17T19:46:34.049Z,8.00
2017-09-17T19:49:02.670Z,8.10
2017-09-17T19:51:32.217Z,8.70
2017-09-17T19:54:00.828Z,7.83
2017-09-17T19:56:29.400Z,8.30
2017-09-17T19:58:57.853Z,8.13
2017-09-17T20:01:26.291Z,7.90
2017-09-17T20:03:54.831Z,8.20
2017-09-17T20:06:23.401Z,8.93
2017-09-17T20:08:52.085Z,9.07
2017-09-17T20:11:20.635Z,10.17
2017-09-17T20:13:49.026Z,8.60
2017-09-17T20:16:17.599Z,9.17
2017-09-17T20:18:46.052Z,10.03
2017-09-17T20:21:14.523Z,8.03
2017-09-17T20:23:43.205Z,9.00
2017-09-17T20:26:11.639Z,8.97
2017-09-17T20:28:40.114Z,9.40
2017-09-17T20:31:08.664Z,10.20
2017-09-17T20:33:37.376Z,9.77
2017-09-17T20:36:06.126Z,10.00
2017-09-17T20:38:34.982Z,9.90
2017-09-17T20:41:03.591Z,10.23
2017-09-17T20:43:32.648Z,10.73
2017-09-17T20:46:01.372Z,10.20
2017-09-17T20:48:29.623Z,10.47
2017-09-17T20:50:57.489Z,10.30
2017-09-17T20:53:25.161Z,10.50
2017-09-17T20:55:52.635Z,9.40
2017-09-17T20:58:20.161Z,10.83
2017-09-17T21:00:47.646Z,11.27
2017-09-17T21:03:15.139Z,11.30
2017-09-17T21:05:42.623Z,10.50
2017-09-17T21:08:10.099Z,10.90
2017-09-17T21:10:37.563Z,11.13
2017-09-17T21:13:05.050Z,10.90
2017-09-17T21:15:32.507Z,9.73
2017-09-17T21:17:59.967Z,10.40
2017-09-17T21:20:27.479Z,11.50
2017-09-17T21:22:54.967Z,10.40
2017-09-17T21:25:22.443Z,9.80
2017-09-17T21:27:49.932Z,9.40
2017-09-17T21:30:17.406Z,10.00
2017-09-17T21:32:44.873Z,10.90
2017-09-17T21:35:12.358Z,11.07
2017-09-17T21:37:39.818Z,9.90
2017-09-17T21:40:07.278Z,10.03
2017-09-17T21:42:34.762Z,10.33
2017-09-17T21:45:02.218Z,9.97
2017-09-17T21:47:29.674Z,11.70
2017-09-17T21:49:57.169Z,10.97
2017-09-17T21:52:24.631Z,10.60
2017-09-17T21:54:52.086Z,10.90
2017-09-17T21:57:19.566Z,11.20
2017-09-17T21:59:47.026Z,10.87
2017-09-17T22:02:14.500Z,10.00
2017-09-17T22:04:41.978Z,9.63
2017-09-17T22:07:09.430Z,10.33
2017-09-17T22:09:36.890Z,10.60
2017-09-17T22:12:04.371Z,8.43
2017-09-17T22:14:31.830Z,7.93
2017-09-17T22:16:59.305Z,8.10
2017-09-17T22:19:26.782Z,7.80
2017-09-17T22:21:54.242Z,8.00
2017-09-17T22:24:21.726Z,6.70
2017-09-17T22:26:49.178Z,7.77
2017-09-17T22:29:16.629Z,7.67
2017-09-17T22:31:44.098Z,7.47
2017-09-17T22:34:11.555Z,8.20
2017-09-17T22:36:39.007Z,8.00
2017-09-17T22:39:06.487Z,7.93
2017-09-17T22:41:33.938Z,7.50
2017-09-17T22:44:01.415Z,8.47
2017-09-17T22:46:28.863Z,7.77
2017-09-17T22:48:56.323Z,7.63
2017-09-17T22:51:23.803Z,8.57
2017-09-17T22:53:51.277Z,8.63
2017-09-17T22:56:18.759Z,9.57
2017-09-17T22:58:46.242Z,7.60
2017-09-17T23:01:13.695Z,8.13
2017-09-17T23:03:41.158Z,7.13
2017-09-17T23:06:08.643Z,6.50
2017-09-17T23:08:36.094Z,7.50
2017-09-17T23:11:03.546Z,7.43
2017-09-17T23:13:31.019Z,8.03
2017-09-17T23:15:58.466Z,7.27
2017-09-17T23:18:25.927Z,8.20
2017-09-17T23:20:53.406Z,8.13
2017-09-17T23:23:20.858Z,7.90
2017-09-17T23:25:48.310Z,7.67
2017-09-17T23:28:15.788Z,8.27
2017-09-17T23:30:43.247Z,8.97
2017-09-17T23:33:10.722Z,8.10
2017-09-17T23:35:38.202Z,8.37
2017-09-17T23:38:05.674Z,8.30
2017-09-17T23:40:33.127Z,6.17
2017-09-17T23:43:00.598Z,5.60
2017-09-17T23:45:28.047Z,5.90
2017-09-17T23:47:55.523Z,4.53
2017-09-17T23:50:22.999Z,5.57
2017-09-17T23:52:50.454Z,5.67
2017-09-17T23:55:17.905Z,4.70
2017-09-17T23:57:45.409Z,4.73
